sensor_id;sensor_type;location;lat;lon;timestamp;P1;durP1;ratioP1;P2;durP2;ratioP2
78891;SDS011;68368;51.728;5.248;2023-04-25T00:01:13;7.30;;;1.80;;
78891;SDS011;68368;51.728;5.248;2023-04-25T00:03:14;9.50;;;2.70;;
78891;SDS011;68368;51.728;5.248;2023-04-25T00:05:17;9.10;;;2.50;;
78891;SDS011;68368;51.728;5.248;2023-04-25T00:07:18;6.70;;;2.70;;
78891;SDS011;68368;51.728;5.248;2023-04-25T00:09:20;5.90;;;2.00;;
78891;SDS011;68368;51.728;5.248;2023-04-25T00:11:23;11.90;;;2.80;;
78891;SDS011;68368;51.728;5.248;2023-04-25T00:13:25;6.70;;;2.50;;
78891;SDS011;68368;51.728;5.248;2023-04-25T00:15:27;9.60;;;2.30;;
78891;SDS011;68368;51.728;5.248;2023-04-25T00:17:29;5.80;;;2.40;;
78891;SDS011;68368;51.728;5.248;2023-04-25T00:19:31;5.70;;;2.40;;
78891;SDS011;68368;51.728;5.248;2023-04-25T00:21:33;8.50;;;2.60;;
78891;SDS011;68368;51.728;5.248;2023-04-25T00:23:36;7.80;;;2.60;;
78891;SDS011;68368;51.728;5.248;2023-04-25T00:25:38;10.10;;;3.70;;
78891;SDS011;68368;51.728;5.248;2023-04-25T00:27:41;7.70;;;2.70;;
78891;SDS011;68368;51.728;5.248;2023-04-25T00:29:43;9.50;;;3.50;;
78891;SDS011;68368;51.728;5.248;2023-04-25T00:31:47;9.30;;;3.00;;
78891;SDS011;68368;51.728;5.248;2023-04-25T00:33:50;8.30;;;2.60;;
78891;SDS011;68368;51.728;5.248;2023-04-25T00:35:52;8.60;;;2.60;;
78891;SDS011;68368;51.728;5.248;2023-04-25T00:37:54;11.10;;;2.40;;
78891;SDS011;68368;51.728;5.248;2023-04-25T00:39:57;7.90;;;2.70;;
78891;SDS011;68368;51.728;5.248;2023-04-25T00:41:59;12.60;;;3.80;;
78891;SDS011;68368;51.728;5.248;2023-04-25T00:44:01;8.90;;;3.00;;
78891;SDS011;68368;51.728;5.248;2023-04-25T00:46:04;6.70;;;2.90;;
78891;SDS011;68368;51.728;5.248;2023-04-25T00:48:06;11.90;;;2.90;;
78891;SDS011;68368;51.728;5.248;2023-04-25T00:50:09;12.40;;;2.90;;
78891;SDS011;68368;51.728;5.248;2023-04-25T00:52:11;11.90;;;4.00;;
78891;SDS011;68368;51.728;5.248;2023-04-25T00:54:13;7.40;;;2.50;;
78891;SDS011;68368;51.728;5.248;2023-04-25T00:56:16;12.80;;;3.30;;
78891;SDS011;68368;51.728;5.248;2023-04-25T00:58:18;10.30;;;3.20;;
78891;SDS011;68368;51.728;5.248;2023-04-25T01:00:21;9.70;;;3.40;;
78891;SDS011;68368;51.728;5.248;2023-04-25T01:02:23;12.00;;;3.20;;
78891;SDS011;68368;51.728;5.248;2023-04-25T01:04:26;8.70;;;2.40;;
78891;SDS011;68368;51.728;5.248;2023-04-25T01:06:31;7.60;;;2.70;;
78891;SDS011;68368;51.728;5.248;2023-04-25T01:08:33;11.10;;;3.10;;
78891;SDS011;68368;51.728;5.248;2023-04-25T01:10:35;7.90;;;2.90;;
78891;SDS011;68368;51.728;5.248;2023-04-25T01:12:37;10.80;;;3.30;;
78891;SDS011;68368;51.728;5.248;2023-04-25T01:14:40;10.90;;;3.10;;
78891;SDS011;68368;51.728;5.248;2023-04-25T01:16:44;10.00;;;3.40;;
78891;SDS011;68368;51.728;5.248;2023-04-25T01:18:47;9.90;;;2.60;;
78891;SDS011;68368;51.728;5.248;2023-04-25T01:20:51;10.10;;;3.70;;
78891;SDS011;68368;51.728;5.248;2023-04-25T01:22:53;11.20;;;3.40;;
78891;SDS011;68368;51.728;5.248;2023-04-25T01:24:56;9.50;;;3.30;;
78891;SDS011;68368;51.728;5.248;2023-04-25T01:26:59;7.40;;;2.90;;
78891;SDS011;68368;51.728;5.248;2023-04-25T01:29:02;10.00;;;3.40;;
78891;SDS011;68368;51.728;5.248;2023-04-25T01:31:05;9.80;;;3.80;;
78891;SDS011;68368;51.728;5.248;2023-04-25T01:33:08;11.90;;;3.90;;
78891;SDS011;68368;51.728;5.248;2023-04-25T01:35:11;10.90;;;3.80;;
78891;SDS011;68368;51.728;5.248;2023-04-25T01:37:13;11.50;;;3.60;;
78891;SDS011;68368;51.728;5.248;2023-04-25T01:39:17;9.20;;;3.20;;
78891;SDS011;68368;51.728;5.248;2023-04-25T01:41:19;11.70;;;3.70;;
78891;SDS011;68368;51.728;5.248;2023-04-25T01:43:22;8.60;;;3.10;;
78891;SDS011;68368;51.728;5.248;2023-04-25T01:45:24;7.70;;;4.00;;
78891;SDS011;68368;51.728;5.248;2023-04-25T01:47:26;11.10;;;2.90;;
78891;SDS011;68368;51.728;5.248;2023-04-25T01:49:28;12.60;;;4.00;;
78891;SDS011;68368;51.728;5.248;2023-04-25T01:51:33;9.60;;;3.60;;
78891;SDS011;68368;51.728;5.248;2023-04-25T01:53:36;12.20;;;3.60;;
78891;SDS011;68368;51.728;5.248;2023-04-25T01:55:38;12.40;;;3.30;;
78891;SDS011;68368;51.728;5.248;2023-04-25T01:57:39;14.30;;;3.40;;
78891;SDS011;68368;51.728;5.248;2023-04-25T01:59:41;13.30;;;3.60;;
78891;SDS011;68368;51.728;5.248;2023-04-25T02:01:44;10.60;;;3.50;;
78891;SDS011;68368;51.728;5.248;2023-04-25T02:03:46;10.40;;;3.60;;
78891;SDS011;68368;51.728;5.248;2023-04-25T02:05:48;11.70;;;3.90;;
78891;SDS011;68368;51.728;5.248;2023-04-25T02:07:51;12.90;;;3.50;;
78891;SDS011;68368;51.728;5.248;2023-04-25T02:09:52;13.90;;;4.10;;
78891;SDS011;68368;51.728;5.248;2023-04-25T02:11:55;15.60;;;4.30;;
78891;SDS011;68368;51.728;5.248;2023-04-25T02:13:58;12.50;;;3.50;;
78891;SDS011;68368;51.728;5.248;2023-04-25T02:16:00;17.00;;;4.50;;
78891;SDS011;68368;51.728;5.248;2023-04-25T02:18:03;14.00;;;4.40;;
78891;SDS011;68368;51.728;5.248;2023-04-25T02:20:06;11.60;;;3.70;;
78891;SDS011;68368;51.728;5.248;2023-04-25T02:22:09;12.60;;;3.40;;
78891;SDS011;68368;51.728;5.248;2023-04-25T02:24:14;13.70;;;3.80;;
78891;SDS011;68368;51.728;5.248;2023-04-25T02:26:16;14.50;;;4.30;;
78891;SDS011;68368;51.728;5.248;2023-04-25T02:28:19;14.20;;;4.30;;
78891;SDS011;68368;51.728;5.248;2023-04-25T02:30:21;12.20;;;4.00;;
78891;SDS011;68368;51.728;5.248;2023-04-25T02:32:23;10.00;;;4.00;;
78891;SDS011;68368;51.728;5.248;2023-04-25T02:34:27;10.20;;;3.80;;
78891;SDS011;68368;51.728;5.248;2023-04-25T02:36:30;13.80;;;3.40;;
78891;SDS011;68368;51.728;5.248;2023-04-25T02:38:31;10.90;;;3.20;;
78891;SDS011;68368;51.728;5.248;2023-04-25T02:40:33;14.50;;;3.60;;
78891;SDS011;68368;51.728;5.248;2023-04-25T02:42:35;12.80;;;3.50;;
78891;SDS011;68368;51.728;5.248;2023-04-25T02:44:39;12.30;;;3.50;;
78891;SDS011;68368;51.728;5.248;2023-04-25T02:46:40;12.30;;;4.10;;
78891;SDS011;68368;51.728;5.248;2023-04-25T02:48:43;13.00;;;4.00;;
78891;SDS011;68368;51.728;5.248;2023-04-25T02:50:47;15.40;;;4.10;;
78891;SDS011;68368;51.728;5.248;2023-04-25T02:52:49;15.30;;;4.60;;
78891;SDS011;68368;51.728;5.248;2023-04-25T02:54:51;12.90;;;3.60;;
78891;SDS011;68368;51.728;5.248;2023-04-25T02:56:52;9.80;;;3.50;;
78891;SDS011;68368;51.728;5.248;2023-04-25T02:58:54;10.20;;;4.00;;
78891;SDS011;68368;51.728;5.248;2023-04-25T03:00:56;13.50;;;3.30;;
78891;SDS011;68368;51.728;5.248;2023-04-25T03:02:58;13.20;;;4.20;;
78891;SDS011;68368;51.728;5.248;2023-04-25T03:05:00;10.00;;;3.40;;
78891;SDS011;68368;51.728;5.248;2023-04-25T03:07:02;14.50;;;4.50;;
78891;SDS011;68368;51.728;5.248;2023-04-25T03:09:07;11.60;;;4.20;;
78891;SDS011;68368;51.728;5.248;2023-04-25T03:11:09;17.60;;;4.70;;
78891;SDS011;68368;51.728;5.248;2023-04-25T03:13:11;11.30;;;3.30;;
78891;SDS011;68368;51.728;5.248;2023-04-25T03:15:13;13.90;;;3.60;;
78891;SDS011;68368;51.728;5.248;2023-04-25T03:17:15;12.60;;;3.50;;
78891;SDS011;68368;51.728;5.248;2023-04-25T03:19:19;10.60;;;3.70;;
78891;SDS011;68368;51.728;5.248;2023-04-25T03:21:21;14.80;;;3.80;;
78891;SDS011;68368;51.728;5.248;2023-04-25T03:23:23;10.20;;;3.40;;
78891;SDS011;68368;51.728;5.248;2023-04-25T03:25:26;18.40;;;5.10;;
78891;SDS011;68368;51.728;5.248;2023-04-25T03:27:31;17.20;;;4.70;;
78891;SDS011;68368;51.728;5.248;2023-04-25T03:29:33;14.80;;;4.90;;
78891;SDS011;68368;51.728;5.248;2023-04-25T03:31:35;14.30;;;4.60;;
78891;SDS011;68368;51.728;5.248;2023-04-25T03:33:37;9.90;;;3.40;;
78891;SDS011;68368;51.728;5.248;2023-04-25T03:35:39;12.20;;;3.10;;
78891;SDS011;68368;51.728;5.248;2023-04-25T03:37:41;11.70;;;3.60;;
78891;SDS011;68368;51.728;5.248;2023-04-25T03:39:43;13.10;;;4.10;;
78891;SDS011;68368;51.728;5.248;2023-04-25T03:41:45;13.60;;;3.80;;
78891;SDS011;68368;51.728;5.248;2023-04-25T03:43:47;16.10;;;4.10;;
78891;SDS011;68368;51.728;5.248;2023-04-25T03:45:48;18.40;;;5.00;;
78891;SDS011;68368;51.728;5.248;2023-04-25T03:47:51;13.10;;;4.50;;
78891;SDS011;68368;51.728;5.248;2023-04-25T03:49:55;13.40;;;4.90;;
78891;SDS011;68368;51.728;5.248;2023-04-25T03:51:58;13.90;;;4.70;;
78891;SDS011;68368;51.728;5.248;2023-04-25T03:54:02;13.00;;;4.00;;
78891;SDS011;68368;51.728;5.248;2023-04-25T03:56:05;13.00;;;3.60;;
78891;SDS011;68368;51.728;5.248;2023-04-25T03:58:08;10.00;;;3.40;;
78891;SDS011;68368;51.728;5.248;2023-04-25T04:00:11;9.90;;;3.40;;
78891;SDS011;68368;51.728;5.248;2023-04-25T04:02:15;8.60;;;3.70;;
78891;SDS011;68368;51.728;5.248;2023-04-25T04:04:20;15.30;;;4.80;;
78891;SDS011;68368;51.728;5.248;2023-04-25T04:06:21;8.40;;;3.80;;
78891;SDS011;68368;51.728;5.248;2023-04-25T04:08:23;9.30;;;4.10;;
78891;SDS011;68368;51.728;5.248;2023-04-25T04:10:25;7.40;;;3.20;;
78891;SDS011;68368;51.728;5.248;2023-04-25T04:12:27;12.30;;;4.10;;
78891;SDS011;68368;51.728;5.248;2023-04-25T04:14:29;14.80;;;3.70;;
78891;SDS011;68368;51.728;5.248;2023-04-25T04:16:33;11.30;;;3.80;;
78891;SDS011;68368;51.728;5.248;2023-04-25T04:18:35;9.90;;;3.40;;
78891;SDS011;68368;51.728;5.248;2023-04-25T04:20:37;11.70;;;3.90;;
78891;SDS011;68368;51.728;5.248;2023-04-25T04:22:39;17.50;;;4.30;;
78891;SDS011;68368;51.728;5.248;2023-04-25T04:24:40;15.80;;;4.50;;
78891;SDS011;68368;51.728;5.248;2023-04-25T04:26:43;10.80;;;3.50;;
78891;SDS011;68368;51.728;5.248;2023-04-25T04:28:46;14.20;;;3.50;;
78891;SDS011;68368;51.728;5.248;2023-04-25T04:30:49;12.30;;;4.20;;
78891;SDS011;68368;51.728;5.248;2023-04-25T04:32:51;12.60;;;4.00;;
78891;SDS011;68368;51.728;5.248;2023-04-25T04:34:53;11.90;;;3.60;;
78891;SDS011;68368;51.728;5.248;2023-04-25T04:36:55;10.30;;;3.60;;
78891;SDS011;68368;51.728;5.248;2023-04-25T04:38:57;9.20;;;3.30;;
78891;SDS011;68368;51.728;5.248;2023-04-25T04:40:58;15.90;;;3.70;;
78891;SDS011;68368;51.728;5.248;2023-04-25T04:43:00;9.40;;;2.50;;
78891;SDS011;68368;51.728;5.248;2023-04-25T04:45:03;11.80;;;3.20;;
78891;SDS011;68368;51.728;5.248;2023-04-25T04:47:06;7.90;;;2.60;;
78891;SDS011;68368;51.728;5.248;2023-04-25T04:49:08;11.50;;;2.70;;
78891;SDS011;68368;51.728;5.248;2023-04-25T04:51:10;11.40;;;3.70;;
78891;SDS011;68368;51.728;5.248;2023-04-25T04:53:12;10.30;;;3.50;;
78891;SDS011;68368;51.728;5.248;2023-04-25T04:55:14;13.00;;;3.50;;
78891;SDS011;68368;51.728;5.248;2023-04-25T04:57:16;13.40;;;3.40;;
78891;SDS011;68368;51.728;5.248;2023-04-25T04:59:18;13.50;;;3.60;;
78891;SDS011;68368;51.728;5.248;2023-04-25T05:01:20;11.30;;;3.00;;
78891;SDS011;68368;51.728;5.248;2023-04-25T05:03:23;9.20;;;3.00;;
78891;SDS011;68368;51.728;5.248;2023-04-25T05:05:25;12.20;;;3.30;;
78891;SDS011;68368;51.728;5.248;2023-04-25T05:07:27;9.00;;;2.70;;
78891;SDS011;68368;51.728;5.248;2023-04-25T05:09:29;14.60;;;4.10;;
78891;SDS011;68368;51.728;5.248;2023-04-25T05:11:31;11.30;;;3.00;;
78891;SDS011;68368;51.728;5.248;2023-04-25T05:13:33;12.40;;;2.80;;
78891;SDS011;68368;51.728;5.248;2023-04-25T05:15:36;10.60;;;3.40;;
78891;SDS011;68368;51.728;5.248;2023-04-25T05:17:39;12.20;;;3.10;;
78891;SDS011;68368;51.728;5.248;2023-04-25T05:19:41;11.10;;;2.70;;
78891;SDS011;68368;51.728;5.248;2023-04-25T05:21:45;10.10;;;3.10;;
78891;SDS011;68368;51.728;5.248;2023-04-25T05:23:47;9.90;;;3.60;;
78891;SDS011;68368;51.728;5.248;2023-04-25T05:25:50;10.50;;;2.30;;
78891;SDS011;68368;51.728;5.248;2023-04-25T05:27:56;11.10;;;2.80;;
78891;SDS011;68368;51.728;5.248;2023-04-25T05:30:01;11.60;;;3.00;;
78891;SDS011;68368;51.728;5.248;2023-04-25T05:32:04;10.10;;;2.60;;
78891;SDS011;68368;51.728;5.248;2023-04-25T05:34:06;15.30;;;3.00;;
78891;SDS011;68368;51.728;5.248;2023-04-25T05:36:09;10.10;;;2.80;;
78891;SDS011;68368;51.728;5.248;2023-04-25T05:38:10;6.70;;;2.70;;
78891;SDS011;68368;51.728;5.248;2023-04-25T05:40:13;9.10;;;2.10;;
78891;SDS011;68368;51.728;5.248;2023-04-25T05:42:15;8.40;;;2.40;;
78891;SDS011;68368;51.728;5.248;2023-04-25T05:44:17;7.40;;;2.20;;
78891;SDS011;68368;51.728;5.248;2023-04-25T05:46:20;10.10;;;2.50;;
78891;SDS011;68368;51.728;5.248;2023-04-25T05:48:22;6.60;;;2.20;;
78891;SDS011;68368;51.728;5.248;2023-04-25T05:50:24;9.20;;;2.50;;
78891;SDS011;68368;51.728;5.248;2023-04-25T05:52:27;9.80;;;2.80;;
78891;SDS011;68368;51.728;5.248;2023-04-25T05:54:29;8.30;;;2.40;;
78891;SDS011;68368;51.728;5.248;2023-04-25T05:56:33;6.30;;;2.40;;
78891;SDS011;68368;51.728;5.248;2023-04-25T05:58:35;9.80;;;2.40;;
78891;SDS011;68368;51.728;5.248;2023-04-25T06:00:36;11.80;;;3.50;;
78891;SDS011;68368;51.728;5.248;2023-04-25T06:02:41;6.80;;;2.50;;
78891;SDS011;68368;51.728;5.248;2023-04-25T06:04:43;7.40;;;2.40;;
78891;SDS011;68368;51.728;5.248;2023-04-25T06:06:48;5.30;;;2.10;;
78891;SDS011;68368;51.728;5.248;2023-04-25T06:08:53;5.10;;;1.60;;
78891;SDS011;68368;51.728;5.248;2023-04-25T06:10:55;6.50;;;2.20;;
78891;SDS011;68368;51.728;5.248;2023-04-25T06:12:57;6.50;;;2.10;;
78891;SDS011;68368;51.728;5.248;2023-04-25T06:14:59;8.30;;;2.50;;
78891;SDS011;68368;51.728;5.248;2023-04-25T06:17:02;6.00;;;2.00;;
78891;SDS011;68368;51.728;5.248;2023-04-25T06:19:04;4.60;;;1.90;;
78891;SDS011;68368;51.728;5.248;2023-04-25T06:21:06;8.90;;;1.90;;
78891;SDS011;68368;51.728;5.248;2023-04-25T06:23:11;4.80;;;1.70;;
78891;SDS011;68368;51.728;5.248;2023-04-25T06:25:13;6.10;;;2.00;;
78891;SDS011;68368;51.728;5.248;2023-04-25T06:27:19;5.40;;;2.00;;
78891;SDS011;68368;51.728;5.248;2023-04-25T06:29:21;7.40;;;2.00;;
78891;SDS011;68368;51.728;5.248;2023-04-25T06:31:23;5.40;;;1.50;;
78891;SDS011;68368;51.728;5.248;2023-04-25T06:33:25;6.80;;;1.80;;
78891;SDS011;68368;51.728;5.248;2023-04-25T06:35:27;5.50;;;1.80;;
78891;SDS011;68368;51.728;5.248;2023-04-25T06:37:29;5.30;;;1.80;;
78891;SDS011;68368;51.728;5.248;2023-04-25T06:39:31;4.00;;;1.40;;
78891;SDS011;68368;51.728;5.248;2023-04-25T06:41:33;7.90;;;1.90;;
78891;SDS011;68368;51.728;5.248;2023-04-25T06:43:36;5.20;;;1.40;;
78891;SDS011;68368;51.728;5.248;2023-04-25T06:45:38;5.10;;;2.10;;
78891;SDS011;68368;51.728;5.248;2023-04-25T06:47:40;3.80;;;1.30;;
78891;SDS011;68368;51.728;5.248;2023-04-25T06:49:42;6.00;;;1.80;;
78891;SDS011;68368;51.728;5.248;2023-04-25T06:51:44;5.00;;;1.40;;
78891;SDS011;68368;51.728;5.248;2023-04-25T06:53:49;8.60;;;1.80;;
78891;SDS011;68368;51.728;5.248;2023-04-25T06:55:51;7.00;;;1.50;;
78891;SDS011;68368;51.728;5.248;2023-04-25T06:57:52;6.00;;;1.80;;
78891;SDS011;68368;51.728;5.248;2023-04-25T06:59:54;4.50;;;1.30;;
78891;SDS011;68368;51.728;5.248;2023-04-25T07:01:58;4.00;;;1.40;;
78891;SDS011;68368;51.728;5.248;2023-04-25T07:04:02;3.70;;;1.40;;
78891;SDS011;68368;51.728;5.248;2023-04-25T07:06:05;5.90;;;1.40;;
78891;SDS011;68368;51.728;5.248;2023-04-25T07:08:07;7.70;;;1.80;;
78891;SDS011;68368;51.728;5.248;2023-04-25T07:10:10;5.70;;;1.40;;
78891;SDS011;68368;51.728;5.248;2023-04-25T07:12:11;4.80;;;1.70;;
78891;SDS011;68368;51.728;5.248;2023-04-25T07:14:17;4.70;;;1.60;;
78891;SDS011;68368;51.728;5.248;2023-04-25T07:16:19;5.00;;;1.70;;
78891;SDS011;68368;51.728;5.248;2023-04-25T07:18:22;5.10;;;1.70;;
78891;SDS011;68368;51.728;5.248;2023-04-25T07:20:24;6.60;;;2.10;;
78891;SDS011;68368;51.728;5.248;2023-04-25T07:22:27;6.20;;;1.60;;
78891;SDS011;68368;51.728;5.248;2023-04-25T07:24:29;4.30;;;1.60;;
78891;SDS011;68368;51.728;5.248;2023-04-25T07:26:34;5.30;;;1.50;;
78891;SDS011;68368;51.728;5.248;2023-04-25T07:28:38;5.90;;;1.80;;
78891;SDS011;68368;51.728;5.248;2023-04-25T07:30:40;6.50;;;1.90;;
78891;SDS011;68368;51.728;5.248;2023-04-25T07:32:42;3.80;;;1.30;;
78891;SDS011;68368;51.728;5.248;2023-04-25T07:34:44;5.90;;;1.70;;
78891;SDS011;68368;51.728;5.248;2023-04-25T07:36:46;3.40;;;1.00;;
78891;SDS011;68368;51.728;5.248;2023-04-25T07:38:48;7.60;;;1.80;;
78891;SDS011;68368;51.728;5.248;2023-04-25T07:40:50;8.40;;;2.00;;
78891;SDS011;68368;51.728;5.248;2023-04-25T07:42:52;6.50;;;1.40;;
78891;SDS011;68368;51.728;5.248;2023-04-25T07:44:54;4.40;;;1.50;;
78891;SDS011;68368;51.728;5.248;2023-04-25T07:46:56;7.00;;;1.40;;
78891;SDS011;68368;51.728;5.248;2023-04-25T07:48:58;4.40;;;1.30;;
78891;SDS011;68368;51.728;5.248;2023-04-25T07:51:01;8.20;;;2.10;;
78891;SDS011;68368;51.728;5.248;2023-04-25T07:53:02;5.40;;;1.50;;
78891;SDS011;68368;51.728;5.248;2023-04-25T07:55:05;5.70;;;1.30;;
78891;SDS011;68368;51.728;5.248;2023-04-25T07:57:07;6.40;;;1.70;;
78891;SDS011;68368;51.728;5.248;2023-04-25T07:59:09;6.70;;;1.40;;
78891;SDS011;68368;51.728;5.248;2023-04-25T08:01:12;6.20;;;1.60;;
78891;SDS011;68368;51.728;5.248;2023-04-25T08:03:14;6.20;;;1.80;;
78891;SDS011;68368;51.728;5.248;2023-04-25T08:05:16;5.20;;;1.30;;
78891;SDS011;68368;51.728;5.248;2023-04-25T08:07:19;8.30;;;1.90;;
78891;SDS011;68368;51.728;5.248;2023-04-25T08:09:21;6.70;;;1.20;;
78891;SDS011;68368;51.728;5.248;2023-04-25T08:11:23;4.00;;;1.10;;
78891;SDS011;68368;51.728;5.248;2023-04-25T08:13:24;4.80;;;1.60;;
78891;SDS011;68368;51.728;5.248;2023-04-25T08:15:26;5.70;;;1.30;;
78891;SDS011;68368;51.728;5.248;2023-04-25T08:17:31;7.40;;;1.60;;
78891;SDS011;68368;51.728;5.248;2023-04-25T08:19:33;6.50;;;1.60;;
78891;SDS011;68368;51.728;5.248;2023-04-25T08:21:37;7.30;;;1.70;;
78891;SDS011;68368;51.728;5.248;2023-04-25T08:23:39;6.60;;;1.40;;
78891;SDS011;68368;51.728;5.248;2023-04-25T08:25:43;6.70;;;1.40;;
78891;SDS011;68368;51.728;5.248;2023-04-25T08:27:45;5.90;;;1.50;;
78891;SDS011;68368;51.728;5.248;2023-04-25T08:29:47;5.80;;;1.60;;
78891;SDS011;68368;51.728;5.248;2023-04-25T08:31:49;5.40;;;1.40;;
78891;SDS011;68368;51.728;5.248;2023-04-25T08:33:51;12.90;;;1.70;;
78891;SDS011;68368;51.728;5.248;2023-04-25T08:35:53;5.10;;;1.30;;
78891;SDS011;68368;51.728;5.248;2023-04-25T08:37:54;5.50;;;1.40;;
78891;SDS011;68368;51.728;5.248;2023-04-25T08:39:56;6.10;;;1.60;;
78891;SDS011;68368;51.728;5.248;2023-04-25T08:41:58;7.20;;;1.20;;
78891;SDS011;68368;51.728;5.248;2023-04-25T08:44:01;8.10;;;1.70;;
78891;SDS011;68368;51.728;5.248;2023-04-25T08:46:06;6.80;;;1.50;;
78891;SDS011;68368;51.728;5.248;2023-04-25T08:48:10;8.10;;;2.00;;
78891;SDS011;68368;51.728;5.248;2023-04-25T08:50:13;6.80;;;1.60;;
78891;SDS011;68368;51.728;5.248;2023-04-25T08:52:15;6.10;;;1.80;;
78891;SDS011;68368;51.728;5.248;2023-04-25T08:54:23;4.90;;;1.60;;
78891;SDS011;68368;51.728;5.248;2023-04-25T08:56:28;4.30;;;1.60;;
78891;SDS011;68368;51.728;5.248;2023-04-25T08:58:32;5.90;;;1.60;;
78891;SDS011;68368;51.728;5.248;2023-04-25T09:00:36;6.00;;;1.40;;
78891;SDS011;68368;51.728;5.248;2023-04-25T09:02:37;4.10;;;1.10;;
78891;SDS011;68368;51.728;5.248;2023-04-25T09:04:40;7.80;;;1.60;;
78891;SDS011;68368;51.728;5.248;2023-04-25T09:06:44;4.80;;;1.50;;
78891;SDS011;68368;51.728;5.248;2023-04-25T09:08:46;8.10;;;1.20;;
78891;SDS011;68368;51.728;5.248;2023-04-25T09:10:50;5.90;;;1.60;;
78891;SDS011;68368;51.728;5.248;2023-04-25T09:13:05;4.30;;;1.10;;
78891;SDS011;68368;51.728;5.248;2023-04-25T09:15:12;4.80;;;1.00;;
78891;SDS011;68368;51.728;5.248;2023-04-25T09:17:14;3.90;;;0.90;;
78891;SDS011;68368;51.728;5.248;2023-04-25T09:19:21;5.50;;;1.00;;
78891;SDS011;68368;51.728;5.248;2023-04-25T09:21:24;5.60;;;1.00;;
78891;SDS011;68368;51.728;5.248;2023-04-25T09:23:26;4.00;;;0.70;;
78891;SDS011;68368;51.728;5.248;2023-04-25T09:25:28;3.60;;;1.70;;
78891;SDS011;68368;51.728;5.248;2023-04-25T09:27:35;4.90;;;0.90;;
78891;SDS011;68368;51.728;5.248;2023-04-25T09:29:56;3.10;;;0.80;;
78891;SDS011;68368;51.728;5.248;2023-04-25T09:32:18;5.60;;;1.20;;
78891;SDS011;68368;51.728;5.248;2023-04-25T09:34:21;3.60;;;0.70;;
78891;SDS011;68368;51.728;5.248;2023-04-25T09:36:27;3.70;;;0.70;;
78891;SDS011;68368;51.728;5.248;2023-04-25T09:38:30;3.00;;;0.80;;
78891;SDS011;68368;51.728;5.248;2023-04-25T09:40:33;4.50;;;1.00;;
78891;SDS011;68368;51.728;5.248;2023-04-25T09:42:41;4.60;;;0.80;;
78891;SDS011;68368;51.728;5.248;2023-04-25T09:44:43;2.90;;;1.00;;
78891;SDS011;68368;51.728;5.248;2023-04-25T09:46:46;5.10;;;1.10;;
78891;SDS011;68368;51.728;5.248;2023-04-25T09:48:51;4.10;;;1.30;;
78891;SDS011;68368;51.728;5.248;2023-04-25T09:51:06;4.70;;;1.10;;
78891;SDS011;68368;51.728;5.248;2023-04-25T09:53:09;4.20;;;0.90;;
78891;SDS011;68368;51.728;5.248;2023-04-25T09:55:12;3.10;;;1.00;;
78891;SDS011;68368;51.728;5.248;2023-04-25T09:57:14;6.00;;;1.30;;
78891;SDS011;68368;51.728;5.248;2023-04-25T09:59:18;6.30;;;1.40;;
78891;SDS011;68368;51.728;5.248;2023-04-25T10:01:21;4.80;;;1.00;;
78891;SDS011;68368;51.728;5.248;2023-04-25T10:03:26;3.50;;;1.10;;
78891;SDS011;68368;51.728;5.248;2023-04-25T10:05:30;3.40;;;1.00;;
78891;SDS011;68368;51.728;5.248;2023-04-25T10:07:34;3.40;;;1.00;;
78891;SDS011;68368;51.728;5.248;2023-04-25T10:09:39;4.20;;;1.10;;
78891;SDS011;68368;51.728;5.248;2023-04-25T10:11:41;4.60;;;1.00;;
78891;SDS011;68368;51.728;5.248;2023-04-25T10:13:43;6.40;;;1.00;;
78891;SDS011;68368;51.728;5.248;2023-04-25T10:15:46;6.40;;;1.10;;
78891;SDS011;68368;51.728;5.248;2023-04-25T10:17:49;4.10;;;0.90;;
78891;SDS011;68368;51.728;5.248;2023-04-25T10:19:51;5.10;;;1.20;;
78891;SDS011;68368;51.728;5.248;2023-04-25T10:21:55;3.10;;;0.70;;
78891;SDS011;68368;51.728;5.248;2023-04-25T10:24:04;3.60;;;0.60;;
78891;SDS011;68368;51.728;5.248;2023-04-25T10:26:07;3.50;;;0.50;;
78891;SDS011;68368;51.728;5.248;2023-04-25T10:28:09;2.50;;;0.90;;
78891;SDS011;68368;51.728;5.248;2023-04-25T10:30:13;6.60;;;0.80;;
78891;SDS011;68368;51.728;5.248;2023-04-25T10:32:16;2.70;;;0.80;;
78891;SDS011;68368;51.728;5.248;2023-04-25T10:34:19;5.10;;;1.00;;
78891;SDS011;68368;51.728;5.248;2023-04-25T10:36:25;3.00;;;0.80;;
78891;SDS011;68368;51.728;5.248;2023-04-25T10:38:29;3.30;;;1.10;;
78891;SDS011;68368;51.728;5.248;2023-04-25T10:40:31;3.70;;;1.10;;
78891;SDS011;68368;51.728;5.248;2023-04-25T10:42:34;4.40;;;1.20;;
78891;SDS011;68368;51.728;5.248;2023-04-25T10:44:37;2.30;;;0.80;;
78891;SDS011;68368;51.728;5.248;2023-04-25T10:46:39;2.10;;;0.50;;
78891;SDS011;68368;51.728;5.248;2023-04-25T10:48:46;1.30;;;0.60;;
78891;SDS011;68368;51.728;5.248;2023-04-25T10:50:49;3.60;;;0.80;;
78891;SDS011;68368;51.728;5.248;2023-04-25T10:53:14;2.30;;;0.60;;
78891;SDS011;68368;51.728;5.248;2023-04-25T10:55:16;3.30;;;0.80;;
78891;SDS011;68368;51.728;5.248;2023-04-25T10:57:31;4.50;;;0.90;;
78891;SDS011;68368;51.728;5.248;2023-04-25T10:59:38;3.60;;;0.90;;
78891;SDS011;68368;51.728;5.248;2023-04-25T11:01:41;4.40;;;0.90;;
78891;SDS011;68368;51.728;5.248;2023-04-25T11:03:44;5.20;;;0.80;;
78891;SDS011;68368;51.728;5.248;2023-04-25T11:05:46;6.00;;;1.20;;
78891;SDS011;68368;51.728;5.248;2023-04-25T11:07:50;3.90;;;0.90;;
78891;SDS011;68368;51.728;5.248;2023-04-25T11:09:53;4.50;;;1.30;;
78891;SDS011;68368;51.728;5.248;2023-04-25T11:11:55;4.30;;;1.30;;
78891;SDS011;68368;51.728;5.248;2023-04-25T11:13:58;5.00;;;1.00;;
78891;SDS011;68368;51.728;5.248;2023-04-25T11:16:01;4.30;;;1.00;;
78891;SDS011;68368;51.728;5.248;2023-04-25T11:18:03;3.10;;;1.00;;
78891;SDS011;68368;51.728;5.248;2023-04-25T11:20:06;3.20;;;0.90;;
78891;SDS011;68368;51.728;5.248;2023-04-25T11:22:09;4.10;;;0.90;;
78891;SDS011;68368;51.728;5.248;2023-04-25T11:24:13;2.90;;;0.90;;
78891;SDS011;68368;51.728;5.248;2023-04-25T11:26:16;4.10;;;1.00;;
78891;SDS011;68368;51.728;5.248;2023-04-25T11:28:21;5.40;;;1.00;;
78891;SDS011;68368;51.728;5.248;2023-04-25T11:30:26;2.20;;;0.70;;
78891;SDS011;68368;51.728;5.248;2023-04-25T11:32:28;1.20;;;0.50;;
78891;SDS011;68368;51.728;5.248;2023-04-25T11:34:31;1.50;;;0.50;;
78891;SDS011;68368;51.728;5.248;2023-04-25T11:36:34;2.00;;;0.60;;
78891;SDS011;68368;51.728;5.248;2023-04-25T11:38:37;2.70;;;0.80;;
78891;SDS011;68368;51.728;5.248;2023-04-25T11:40:39;2.00;;;0.70;;
78891;SDS011;68368;51.728;5.248;2023-04-25T11:42:44;3.60;;;0.50;;
78891;SDS011;68368;51.728;5.248;2023-04-25T11:44:47;3.50;;;0.80;;
78891;SDS011;68368;51.728;5.248;2023-04-25T11:46:49;5.50;;;1.10;;
78891;SDS011;68368;51.728;5.248;2023-04-25T11:48:52;3.80;;;1.00;;
78891;SDS011;68368;51.728;5.248;2023-04-25T11:50:59;3.30;;;0.80;;
78891;SDS011;68368;51.728;5.248;2023-04-25T11:53:01;2.40;;;0.60;;
78891;SDS011;68368;51.728;5.248;2023-04-25T11:55:04;2.60;;;0.50;;
78891;SDS011;68368;51.728;5.248;2023-04-25T11:57:08;6.60;;;0.80;;
78891;SDS011;68368;51.728;5.248;2023-04-25T11:59:10;3.40;;;0.70;;
78891;SDS011;68368;51.728;5.248;2023-04-25T12:01:12;1.50;;;0.50;;
78891;SDS011;68368;51.728;5.248;2023-04-25T12:03:26;3.30;;;0.60;;
78891;SDS011;68368;51.728;5.248;2023-04-25T12:05:31;4.40;;;0.90;;
78891;SDS011;68368;51.728;5.248;2023-04-25T12:07:33;4.30;;;0.60;;
78891;SDS011;68368;51.728;5.248;2023-04-25T12:09:35;4.60;;;0.80;;
78891;SDS011;68368;51.728;5.248;2023-04-25T12:11:43;4.20;;;0.90;;
78891;SDS011;68368;51.728;5.248;2023-04-25T12:13:51;3.50;;;0.80;;
78891;SDS011;68368;51.728;5.248;2023-04-25T12:15:54;3.70;;;0.80;;
78891;SDS011;68368;51.728;5.248;2023-04-25T12:17:58;4.20;;;0.90;;